createdAt,value
2024-04-06T00:00:41.363Z,7.30
2024-04-06T00:03:28.993Z,6.30
2024-04-06T00:05:56.971Z,6.70
2024-04-06T00:08:24.956Z,6.50
2024-04-06T00:10:52.882Z,6.60
2024-04-06T00:13:20.741Z,7.40
2024-04-06T00:15:48.980Z,6.50
2024-04-06T00:18:17.097Z,6.40
2024-04-06T00:20:44.970Z,7.00
2024-04-06T00:23:12.940Z,6.80
2024-04-06T00:25:40.894Z,6.10
2024-04-06T00:28:08.694Z,5.90
2024-04-06T00:30:36.639Z,6.40
2024-04-06T00:33:04.777Z,6.40
2024-04-06T00:35:32.655Z,6.10
2024-04-06T00:38:00.658Z,6.90
2024-04-06T00:40:28.520Z,6.00
2024-04-06T00:42:56.444Z,6.10
2024-04-06T00:45:24.495Z,5.90
2024-04-06T00:47:52.317Z,5.70
2024-04-06T00:50:20.872Z,5.50
2024-04-06T00:52:48.953Z,5.40
2024-04-06T00:55:17.913Z,5.40
2024-04-06T00:57:45.867Z,5.40
2024-04-06T01:00:13.844Z,5.50
2024-04-06T01:02:42.056Z,5.10
2024-04-06T01:05:09.793Z,5.20
2024-04-06T01:07:40.407Z,4.80
2024-04-06T01:12:36.113Z,4.90
2024-04-06T01:15:04.627Z,4.70
2024-04-06T01:17:33.376Z,4.40
2024-04-06T01:20:01.484Z,4.30
2024-04-06T01:22:29.344Z,4.70
2024-04-06T01:24:58.897Z,4.50
2024-04-06T01:27:26.698Z,4.70
2024-04-06T01:29:55.056Z,4.70
2024-04-06T01:32:22.897Z,4.30
2024-04-06T01:34:50.861Z,4.70
2024-04-06T01:37:19.554Z,4.50
2024-04-06T01:39:47.422Z,4.90
2024-04-06T01:42:15.513Z,4.70
2024-04-06T01:44:43.595Z,4.80
2024-04-06T01:47:11.423Z,5.10
2024-04-06T01:49:39.288Z,4.60
2024-04-06T01:52:07.113Z,4.40
2024-04-06T01:54:35.014Z,5.30
2024-04-06T01:57:02.773Z,4.70
2024-04-06T01:59:34.914Z,4.80
2024-04-06T02:02:02.897Z,4.50
2024-04-06T02:04:30.720Z,4.50
2024-04-06T02:06:58.507Z,4.30
2024-04-06T02:09:26.383Z,4.30
2024-04-06T02:11:54.219Z,4.40
2024-04-06T02:14:22.060Z,4.30
2024-04-06T02:16:49.995Z,4.10
2024-04-06T02:19:17.991Z,4.00
2024-04-06T02:21:45.746Z,4.10
2024-04-06T02:24:13.478Z,4.70
2024-04-06T02:26:42.519Z,4.30
2024-04-06T02:29:10.399Z,4.10
2024-04-06T02:31:38.285Z,4.20
2024-04-06T02:34:06.379Z,4.00
2024-04-06T02:36:36.332Z,4.20
2024-04-06T02:39:04.996Z,3.70
2024-04-06T02:41:32.774Z,3.70
2024-04-06T02:44:01.708Z,3.80
2024-04-06T02:46:29.605Z,3.70
2024-04-06T02:48:57.353Z,3.70
2024-04-06T02:51:26.148Z,3.90
2024-04-06T02:53:54.086Z,3.50
2024-04-06T02:56:22.585Z,3.20
2024-04-06T02:58:50.537Z,3.70
2024-04-06T03:01:18.242Z,4.00
2024-04-06T03:03:46.158Z,3.50
2024-04-06T03:06:14.023Z,3.40
2024-04-06T03:08:41.832Z,3.30
2024-04-06T03:11:09.961Z,3.60
2024-04-06T03:13:37.950Z,3.00
2024-04-06T03:16:07.185Z,3.30
2024-04-06T03:18:35.187Z,3.20
2024-04-06T03:21:05.618Z,3.40
2024-04-06T03:26:01.201Z,3.10
2024-04-06T03:28:28.982Z,3.30
2024-04-06T03:30:59.043Z,4.00
2024-04-06T03:33:26.910Z,3.40
2024-04-06T03:35:54.838Z,3.30
2024-04-06T03:38:22.550Z,3.40
2024-04-06T03:40:50.435Z,3.00
2024-04-06T03:43:18.283Z,3.20
2024-04-06T03:45:48.165Z,3.20
2024-04-06T03:48:15.894Z,3.10
2024-04-06T03:50:43.771Z,3.20
2024-04-06T03:53:12.757Z,3.20
2024-04-06T03:55:40.933Z,3.10
2024-04-06T03:58:09.233Z,3.10
2024-04-06T04:00:37.101Z,3.00
2024-04-06T04:03:05.452Z,3.80
2024-04-06T04:05:33.657Z,3.60
2024-04-06T04:08:01.428Z,3.10
2024-04-06T04:10:29.224Z,3.50
2024-04-06T04:12:58.832Z,3.40
2024-04-06T04:15:27.848Z,3.10
2024-04-06T04:17:55.709Z,3.40
2024-04-06T04:20:23.576Z,3.10
2024-04-06T04:22:51.379Z,3.80
2024-04-06T04:25:19.169Z,3.90
2024-04-06T04:27:47.052Z,4.50
2024-04-06T04:30:16.841Z,4.30
2024-04-06T04:32:44.880Z,5.70
2024-04-06T04:35:12.818Z,6.00
2024-04-06T04:37:40.727Z,6.00
2024-04-06T04:40:09.732Z,5.40
2024-04-06T04:42:38.100Z,5.70
2024-04-06T04:45:11.865Z,5.30
2024-04-06T04:47:40.651Z,5.80
2024-04-06T04:50:12.449Z,5.50
2024-04-06T04:52:40.204Z,6.50
2024-04-06T04:55:08.074Z,6.30
2024-04-06T04:57:35.802Z,6.00
2024-04-06T05:00:04.856Z,5.50
2024-04-06T05:02:32.845Z,3.70
2024-04-06T05:05:00.599Z,3.50
2024-04-06T05:07:28.632Z,3.70
2024-04-06T05:09:56.331Z,4.40
2024-04-06T05:12:24.063Z,5.00
2024-04-06T05:14:51.771Z,4.40
2024-04-06T05:17:19.835Z,4.20
2024-04-06T05:19:47.689Z,4.00
2024-04-06T05:22:15.873Z,3.70
2024-04-06T05:24:44.114Z,3.90
2024-04-06T05:27:12.033Z,3.80
2024-04-06T05:29:39.954Z,4.10
2024-04-06T05:32:07.791Z,3.80
2024-04-06T05:34:35.806Z,3.60
2024-04-06T05:37:04.315Z,3.50
2024-04-06T05:39:32.451Z,3.10
2024-04-06T05:42:00.329Z,3.60
2024-04-06T05:44:28.321Z,3.80
2024-04-06T05:46:56.419Z,3.90
2024-04-06T05:49:24.312Z,3.60
2024-04-06T05:51:52.134Z,4.00
2024-04-06T05:54:20.040Z,3.70
2024-04-06T05:56:47.894Z,3.80
2024-04-06T05:59:15.662Z,3.50
2024-04-06T06:01:44.087Z,4.30
2024-04-06T06:04:11.946Z,4.30
2024-04-06T06:06:39.847Z,5.30
2024-04-06T06:09:08.864Z,4.00
2024-04-06T06:11:37.075Z,4.60
2024-04-06T06:14:04.954Z,4.10
2024-04-06T06:16:32.796Z,4.50
2024-04-06T06:19:02.492Z,4.60
2024-04-06T06:21:31.166Z,4.50
2024-04-06T06:23:59.001Z,5.50
2024-04-06T06:26:26.926Z,4.10
2024-04-06T06:28:54.746Z,4.90
2024-04-06T06:31:22.515Z,3.40
2024-04-06T06:33:50.871Z,2.60
2024-04-06T06:41:21.930Z,1.60
2024-04-06T06:43:49.746Z,1.40
2024-04-06T06:46:17.896Z,1.50
2024-04-06T06:48:45.821Z,1.80
2024-04-06T06:51:13.703Z,1.40
2024-04-06T06:53:41.448Z,1.40
2024-04-06T06:56:09.328Z,1.30
2024-04-06T06:58:37.725Z,1.30
2024-04-06T07:01:05.726Z,1.20
2024-04-06T07:03:33.591Z,1.20
2024-04-06T07:06:01.669Z,1.40
2024-04-06T07:08:29.672Z,1.60
2024-04-06T07:10:57.582Z,1.40
2024-04-06T07:13:25.504Z,1.50
2024-04-06T07:16:02.595Z,1.30
2024-04-06T07:18:30.432Z,1.40
2024-04-06T07:20:58.907Z,1.30
2024-04-06T07:23:26.891Z,1.60
2024-04-06T07:25:54.900Z,1.30
2024-04-06T07:28:22.841Z,1.60
2024-04-06T07:30:50.706Z,1.30
2024-04-06T07:33:18.589Z,1.30
2024-04-06T07:35:46.842Z,1.60
2024-04-06T07:38:16.173Z,1.40
2024-04-06T07:43:12.622Z,1.30
2024-04-06T07:45:40.543Z,1.40
2024-04-06T07:48:08.426Z,1.30
2024-04-06T07:50:36.612Z,1.70
2024-04-06T07:53:04.502Z,1.60
2024-04-06T07:55:32.292Z,1.60
2024-04-06T07:58:00.210Z,1.90
2024-04-06T08:00:28.236Z,1.90
2024-04-06T08:02:56.094Z,1.70
2024-04-06T08:05:24.035Z,2.10
2024-04-06T08:07:52.204Z,2.10
2024-04-06T08:10:22.213Z,1.90
2024-04-06T08:12:51.610Z,1.70
2024-04-06T08:15:19.550Z,1.80
2024-04-06T08:17:49.645Z,1.60
2024-04-06T08:20:17.788Z,1.90
2024-04-06T08:22:46.264Z,2.20
2024-04-06T08:25:14.491Z,2.10
2024-04-06T08:27:42.469Z,1.80
2024-04-06T08:30:15.417Z,2.20
2024-04-06T08:32:44.447Z,2.20
2024-04-06T08:35:16.080Z,2.20
2024-04-06T08:37:43.956Z,2.40
2024-04-06T08:40:12.176Z,2.20
2024-04-06T08:42:44.975Z,2.30
2024-04-06T08:45:14.143Z,2.10
2024-04-06T08:47:43.323Z,2.00
2024-04-06T08:50:12.168Z,1.60
2024-04-06T08:52:40.595Z,2.00
2024-04-06T08:55:10.226Z,1.80
2024-04-06T08:57:40.702Z,2.20
2024-04-06T09:00:12.861Z,2.30
2024-04-06T09:02:42.167Z,2.50
2024-04-06T09:05:11.652Z,2.30
2024-04-06T09:07:39.511Z,2.50
2024-04-06T09:10:08.494Z,1.80
2024-04-06T09:12:36.236Z,2.00
2024-04-06T09:15:05.363Z,2.60
2024-04-06T09:17:33.288Z,2.80
2024-04-06T09:20:05.625Z,2.40
2024-04-06T09:22:34.788Z,3.10
2024-04-06T09:25:08.756Z,2.50
2024-04-06T09:27:44.904Z,2.60
2024-04-06T09:30:13.283Z,2.60
2024-04-06T09:32:41.809Z,2.50
2024-04-06T09:35:11.836Z,2.70
2024-04-06T09:37:41.314Z,3.00
2024-04-06T09:40:11.752Z,2.70
2024-04-06T09:42:39.986Z,2.80
2024-04-06T09:45:08.320Z,2.70
2024-04-06T09:47:36.466Z,2.60
2024-04-06T09:50:05.393Z,2.60
2024-04-06T09:52:33.319Z,2.50
2024-04-06T09:55:01.196Z,2.30
2024-04-06T09:57:29.958Z,2.60
2024-04-06T10:00:02.173Z,3.10
2024-04-06T10:02:35.760Z,2.40
2024-04-06T10:05:07.432Z,2.20
2024-04-06T10:07:37.519Z,3.70
2024-04-06T10:10:07.638Z,2.70
2024-04-06T10:12:49.474Z,2.40
2024-04-06T10:15:20.207Z,2.50
2024-04-06T10:17:52.893Z,2.20
2024-04-06T10:20:25.084Z,2.90
2024-04-06T10:22:59.377Z,2.20
2024-04-06T10:25:38.451Z,2.80
2024-04-06T10:28:11.321Z,2.40
2024-04-06T10:30:40.912Z,3.10
2024-04-06T10:33:10.601Z,2.90
2024-04-06T10:35:40.415Z,3.80
2024-04-06T10:38:08.393Z,2.90
2024-04-06T10:40:38.241Z,3.20
2024-04-06T10:43:07.515Z,2.90
2024-04-06T10:45:35.497Z,2.30
2024-04-06T10:48:03.940Z,3.10
2024-04-06T10:50:33.476Z,2.80
2024-04-06T10:53:01.573Z,2.70
2024-04-06T10:55:30.014Z,3.20
2024-04-06T10:57:58.077Z,4.10
2024-04-06T11:00:27.706Z,2.70
2024-04-06T11:03:02.392Z,3.10
2024-04-06T11:05:31.297Z,2.50
2024-04-06T11:07:59.302Z,2.70
2024-04-06T11:10:27.808Z,4.10
2024-04-06T11:12:58.602Z,4.80
2024-04-06T11:15:27.904Z,4.60
2024-04-06T11:17:57.139Z,2.90
2024-04-06T11:20:26.599Z,3.50
2024-04-06T11:22:54.870Z,3.00
2024-04-06T11:25:23.100Z,4.30
2024-04-06T11:27:51.888Z,5.10
2024-04-06T11:30:21.558Z,5.20
2024-04-06T11:32:51.122Z,2.60
2024-04-06T11:35:19.220Z,3.00
2024-04-06T11:37:47.756Z,2.50
2024-04-06T11:40:15.842Z,3.00
2024-04-06T11:42:43.605Z,3.50
2024-04-06T11:45:11.355Z,3.20
2024-04-06T11:47:40.790Z,3.00
2024-04-06T11:50:09.268Z,2.50
2024-04-06T11:52:37.487Z,2.70
2024-04-06T11:55:06.449Z,2.60
2024-04-06T11:57:36.188Z,2.30
2024-04-06T12:00:07.021Z,2.60
2024-04-06T12:02:42.816Z,2.60
2024-04-06T12:05:11.137Z,2.50
2024-04-06T12:07:40.218Z,3.00
2024-04-06T12:10:08.478Z,2.50
2024-04-06T12:12:36.693Z,2.10
2024-04-06T12:15:05.815Z,2.70
2024-04-06T12:17:33.988Z,2.40
2024-04-06T12:20:01.890Z,2.60
2024-04-06T12:22:31.070Z,3.80
2024-04-06T12:24:59.062Z,2.70
2024-04-06T12:27:27.241Z,2.70
2024-04-06T12:29:55.179Z,3.20
2024-04-06T12:32:23.093Z,2.80
2024-04-06T12:34:51.010Z,2.50
2024-04-06T12:37:18.972Z,2.90
2024-04-06T12:39:47.071Z,3.70
2024-04-06T12:42:14.967Z,3.10
2024-04-06T12:44:42.976Z,3.40
2024-04-06T12:47:11.138Z,3.40
2024-04-06T12:49:39.139Z,3.40
2024-04-06T12:52:08.140Z,5.20
2024-04-06T12:54:35.945Z,3.30
2024-04-06T12:57:22.814Z,3.20
2024-04-06T12:59:50.806Z,3.50
2024-04-06T13:02:22.066Z,2.50
2024-04-06T13:04:51.246Z,2.90
2024-04-06T13:07:19.272Z,3.30
2024-04-06T13:09:55.026Z,2.60
2024-04-06T13:12:31.239Z,3.40
2024-04-06T13:15:00.182Z,2.80
2024-04-06T13:17:28.859Z,2.90
2024-04-06T13:19:56.915Z,2.60
2024-04-06T13:22:24.951Z,4.00
2024-04-06T13:24:53.674Z,2.70
2024-04-06T13:27:21.705Z,3.10
2024-04-06T13:29:49.505Z,2.50
2024-04-06T13:32:17.700Z,2.80
2024-04-06T13:34:56.106Z,2.80
2024-04-06T13:37:25.596Z,3.40
2024-04-06T13:39:54.468Z,3.40
2024-04-06T13:42:23.191Z,3.60
2024-04-06T13:44:51.122Z,3.10
2024-04-06T13:47:19.236Z,3.40
2024-04-06T13:49:47.068Z,3.40
2024-04-06T13:52:15.048Z,2.70
2024-04-06T13:54:43.131Z,2.40
2024-04-06T13:57:11.060Z,2.90
2024-04-06T13:59:38.860Z,2.90
2024-04-06T14:02:06.717Z,3.20
2024-04-06T14:04:34.696Z,2.90
2024-04-06T14:07:02.524Z,3.30
2024-04-06T14:09:30.406Z,3.10
2024-04-06T14:11:58.228Z,2.70
2024-04-06T14:14:35.147Z,3.70
2024-04-06T14:17:03.586Z,3.10
2024-04-06T14:19:33.541Z,2.90
2024-04-06T14:22:01.444Z,3.90
2024-04-06T14:24:29.889Z,2.80
2024-04-06T14:26:58.932Z,3.70
2024-04-06T14:29:27.020Z,3.00
2024-04-06T14:31:54.778Z,3.00
2024-04-06T14:34:22.813Z,3.30
2024-04-06T14:36:53.466Z,3.20
2024-04-06T14:39:22.490Z,3.10
2024-04-06T14:41:50.371Z,3.70
2024-04-06T14:44:18.319Z,3.40
2024-04-06T14:46:46.291Z,5.80
2024-04-06T14:49:14.277Z,3.20
2024-04-06T14:51:42.868Z,2.90
2024-04-06T14:54:10.703Z,3.00
2024-04-06T14:56:38.557Z,3.40
2024-04-06T14:59:06.913Z,4.50
2024-04-06T15:01:34.740Z,5.10
2024-04-06T15:04:03.711Z,3.80
2024-04-06T15:06:31.716Z,3.40
2024-04-06T15:08:59.687Z,3.70
2024-04-06T15:11:27.582Z,47.00
2024-04-06T15:13:55.546Z,55.50
2024-04-06T15:16:23.361Z,11.80
2024-04-06T15:18:51.238Z,7.60
2024-04-06T15:21:19.251Z,6.20
2024-04-06T15:23:47.523Z,7.20
2024-04-06T15:26:15.295Z,6.20
2024-04-06T15:28:43.375Z,5.20
2024-04-06T15:31:11.541Z,4.10
2024-04-06T15:33:40.536Z,3.60
2024-04-06T15:36:08.596Z,3.40
2024-04-06T15:38:36.618Z,3.30
2024-04-06T15:41:04.854Z,3.50
2024-04-06T15:43:33.481Z,5.30
2024-04-06T15:46:01.519Z,4.70
2024-04-06T15:48:29.465Z,4.80
2024-04-06T15:50:57.739Z,3.20
2024-04-06T15:53:25.598Z,4.20
2024-04-06T15:55:53.406Z,3.40
2024-04-06T15:58:22.753Z,3.10
2024-04-06T16:00:50.851Z,2.80
2024-04-06T16:03:19.752Z,3.20
2024-04-06T16:05:47.538Z,3.30
2024-04-06T16:08:15.420Z,2.90
2024-04-06T16:10:43.809Z,3.20
2024-04-06T16:13:11.787Z,3.20
2024-04-06T16:15:39.743Z,3.10
2024-04-06T16:18:07.737Z,3.20
2024-04-06T16:20:35.822Z,2.80
2024-04-06T16:23:03.968Z,3.40
2024-04-06T16:25:31.840Z,3.30
2024-04-06T16:28:04.144Z,3.10
2024-04-06T16:30:32.884Z,3.00
2024-04-06T16:33:01.627Z,3.00
2024-04-06T16:35:30.435Z,3.30
2024-04-06T16:37:58.318Z,4.50
2024-04-06T16:40:27.577Z,3.50
2024-04-06T16:42:55.349Z,3.20
2024-04-06T16:45:23.629Z,3.20
2024-04-06T16:47:52.005Z,3.00
2024-04-06T16:50:19.951Z,2.80
2024-04-06T16:52:48.021Z,3.00
2024-04-06T16:55:15.882Z,3.10
2024-04-06T16:57:45.391Z,3.30
2024-04-06T17:00:14.887Z,4.20
2024-04-06T17:02:43.174Z,4.60
2024-04-06T17:05:14.792Z,3.90
2024-04-06T17:07:43.315Z,3.80
2024-04-06T17:10:14.348Z,4.30
2024-04-06T17:12:45.431Z,5.50
2024-04-06T17:15:13.451Z,6.10
2024-04-06T17:17:41.203Z,5.50
2024-04-06T17:20:09.992Z,6.50
2024-04-06T17:22:39.298Z,7.20
2024-04-06T17:25:08.258Z,8.30
2024-04-06T17:27:36.486Z,9.00
2024-04-06T17:30:05.848Z,10.30
2024-04-06T17:32:35.255Z,10.60
2024-04-06T17:35:05.777Z,9.60
2024-04-06T17:37:33.934Z,8.70
2024-04-06T17:40:01.836Z,9.70
2024-04-06T17:42:30.019Z,9.90
2024-04-06T17:44:57.715Z,8.90
2024-04-06T17:47:25.767Z,9.00
2024-04-06T17:49:53.664Z,9.60
2024-04-06T17:52:21.478Z,8.90
2024-04-06T17:54:49.462Z,8.80
2024-04-06T17:57:17.546Z,7.60
2024-04-06T17:59:46.315Z,7.10
2024-04-06T18:02:14.473Z,7.10
2024-04-06T18:04:43.772Z,6.40
2024-04-06T18:07:12.007Z,5.90
2024-04-06T18:09:39.926Z,5.30
2024-04-06T18:12:08.439Z,5.20
2024-04-06T18:14:36.308Z,5.00
2024-04-06T18:17:05.386Z,5.20
2024-04-06T18:19:34.288Z,4.70
2024-04-06T18:22:02.280Z,4.00
2024-04-06T18:24:30.245Z,4.50
2024-04-06T18:26:58.180Z,4.70
2024-04-06T18:29:26.029Z,4.30
2024-04-06T18:31:53.821Z,4.30
2024-04-06T18:34:26.027Z,4.00
2024-04-06T18:36:54.225Z,3.80
2024-04-06T18:39:22.419Z,4.00
2024-04-06T18:41:50.414Z,4.60
2024-04-06T18:44:18.151Z,4.10
2024-04-06T18:46:46.123Z,4.00
2024-04-06T18:49:15.083Z,4.40
2024-04-06T18:51:42.893Z,4.20
2024-04-06T18:54:20.330Z,3.90
2024-04-06T18:56:54.577Z,4.50
2024-04-06T18:59:22.476Z,4.10
2024-04-06T19:01:50.537Z,4.00
2024-04-06T19:04:19.189Z,4.30
2024-04-06T19:06:48.638Z,4.20
2024-04-06T19:09:16.788Z,5.10
2024-04-06T19:11:44.838Z,4.90
2024-04-06T19:14:13.076Z,5.40
2024-04-06T19:16:40.930Z,5.30
2024-04-06T19:19:09.017Z,5.80
2024-04-06T19:21:38.581Z,8.20
2024-04-06T19:24:07.023Z,6.80
2024-04-06T19:26:34.878Z,7.70
2024-04-06T19:29:05.932Z,8.50
2024-04-06T19:31:34.150Z,8.30
2024-04-06T19:34:02.254Z,7.60
2024-04-06T19:36:30.296Z,8.50
2024-04-06T19:38:58.883Z,8.20
2024-04-06T19:41:27.227Z,9.30
2024-04-06T19:43:54.943Z,9.30
2024-04-06T19:46:22.945Z,10.10
2024-04-06T19:48:51.317Z,11.80
2024-04-06T19:51:19.280Z,11.10
2024-04-06T19:53:47.101Z,11.10
2024-04-06T19:56:15.010Z,10.90
2024-04-06T19:58:42.864Z,10.70
2024-04-06T20:01:10.813Z,12.00
2024-04-06T20:03:38.663Z,11.50
2024-04-06T20:06:09.403Z,10.00
2024-04-06T20:08:38.601Z,10.50
2024-04-06T20:11:06.711Z,9.20
2024-04-06T20:13:34.518Z,10.70
2024-04-06T20:16:02.404Z,10.60
2024-04-06T20:18:30.371Z,10.30
2024-04-06T20:20:58.894Z,9.00
2024-04-06T20:23:45.453Z,9.40
2024-04-06T20:26:15.128Z,9.10
2024-04-06T20:28:43.612Z,8.10
2024-04-06T20:31:12.389Z,8.40
2024-04-06T20:33:41.344Z,8.10
2024-04-06T20:36:09.505Z,8.70
2024-04-06T20:38:37.389Z,8.50
2024-04-06T20:41:05.183Z,9.20
2024-04-06T20:43:33.116Z,8.80
2024-04-06T20:46:00.989Z,8.50
2024-04-06T20:48:28.906Z,8.60
2024-04-06T20:50:56.696Z,8.60
2024-04-06T20:53:24.881Z,8.90
2024-04-06T20:55:52.576Z,8.70
2024-04-06T20:58:20.393Z,7.90
2024-04-06T21:00:49.336Z,8.80
2024-04-06T21:03:17.116Z,7.80
2024-04-06T21:05:45.051Z,8.70
2024-04-06T21:08:12.956Z,7.80
2024-04-06T21:10:40.771Z,8.10
2024-04-06T21:13:08.871Z,9.00
2024-04-06T21:15:38.324Z,10.10
2024-04-06T21:18:06.314Z,9.60
2024-04-06T21:20:34.310Z,10.30
2024-04-06T21:23:02.708Z,11.50
2024-04-06T21:25:30.699Z,12.00
2024-04-06T21:27:58.917Z,11.60
2024-04-06T21:30:26.927Z,12.10
2024-04-06T21:32:56.101Z,13.00
2024-04-06T21:35:25.046Z,13.60
2024-04-06T21:37:53.042Z,14.70
2024-04-06T21:40:21.361Z,18.00
2024-04-06T21:42:49.258Z,20.20
2024-04-06T21:45:17.116Z,19.80
2024-04-06T21:47:45.087Z,16.00
2024-04-06T21:50:12.913Z,14.30
2024-04-06T21:52:40.837Z,10.80
2024-04-06T21:55:10.279Z,10.00
2024-04-06T21:57:38.138Z,10.30
2024-04-06T22:00:07.556Z,9.90
2024-04-06T22:02:35.618Z,10.20
2024-04-06T22:05:03.922Z,10.30
2024-04-06T22:07:31.825Z,10.20
2024-04-06T22:09:59.675Z,9.20
2024-04-06T22:12:27.519Z,9.70
2024-04-06T22:14:55.427Z,9.40
2024-04-06T22:17:23.419Z,9.50
2024-04-06T22:19:51.344Z,10.60
2024-04-06T22:22:19.163Z,9.70
2024-04-06T22:24:46.939Z,9.80
2024-04-06T22:27:14.778Z,9.10
2024-04-06T22:29:44.227Z,9.50
2024-04-06T22:32:12.084Z,10.00
2024-04-06T22:34:39.986Z,10.20
2024-04-06T22:37:08.226Z,9.10
2024-04-06T22:39:35.956Z,9.20
2024-04-06T22:42:04.494Z,9.30
2024-04-06T22:44:33.056Z,9.00
2024-04-06T22:47:01.134Z,9.80
2024-04-06T22:49:28.840Z,8.90
2024-04-06T22:51:56.545Z,9.20
2024-04-06T22:54:24.387Z,9.10
2024-04-06T22:56:52.976Z,9.10
2024-04-06T22:59:20.907Z,8.30
2024-04-06T23:01:49.261Z,8.50
2024-04-06T23:04:17.343Z,7.80
2024-04-06T23:06:45.306Z,7.60
2024-04-06T23:09:13.146Z,7.60
2024-04-06T23:11:41.109Z,8.60
2024-04-06T23:14:09.003Z,7.80
2024-04-06T23:16:36.954Z,7.50
2024-04-06T23:19:04.678Z,7.70
2024-04-06T23:21:32.680Z,8.40
2024-04-06T23:24:00.590Z,8.10
2024-04-06T23:26:28.515Z,7.40
2024-04-06T23:28:56.392Z,8.20
2024-04-06T23:31:24.340Z,8.20
2024-04-06T23:33:52.243Z,8.20
2024-04-06T23:36:20.108Z,7.80
2024-04-06T23:38:48.038Z,7.50
2024-04-06T23:41:17.640Z,8.00
2024-04-06T23:43:46.464Z,7.90
2024-04-06T23:46:14.332Z,8.20
2024-04-06T23:48:42.129Z,7.10
2024-04-06T23:51:09.884Z,8.10
2024-04-06T23:53:37.661Z,7.30
2024-04-06T23:56:06.445Z,7.80
2024-04-06T23:58:34.298Z,7.80
